createdAt,value
2023-09-17T00:01:28.880Z,99458.34
2023-09-17T00:03:55.921Z,99457.66
2023-09-17T00:06:22.665Z,99450.78
2023-09-17T00:08:49.098Z,99459.63
2023-09-17T00:11:15.843Z,99453.56
2023-09-17T00:13:43.725Z,99452.66
2023-09-17T00:16:10.476Z,99452.00
2023-09-17T00:18:37.030Z,99457.88
2023-09-17T00:21:03.464Z,99457.31
2023-09-17T00:23:29.941Z,99459.44
2023-09-17T00:25:56.363Z,99460.03
2023-09-17T00:28:22.792Z,99463.66
2023-09-17T00:30:50.726Z,99474.97
2023-09-17T00:33:17.226Z,99472.34
2023-09-17T00:35:44.333Z,99502.63
2023-09-17T00:38:10.795Z,99537.84
2023-09-17T00:40:37.319Z,99523.88
2023-09-17T00:43:04.273Z,99538.66
2023-09-17T00:45:31.559Z,99520.47
2023-09-17T00:48:00.536Z,99525.13
2023-09-17T00:50:27.124Z,99531.69
2023-09-17T00:52:53.820Z,99529.09
2023-09-17T00:55:20.664Z,99519.97
2023-09-17T00:57:47.274Z,99526.09
2023-09-17T01:00:14.258Z,99515.63
2023-09-17T01:02:42.550Z,99519.22
2023-09-17T01:05:10.431Z,99514.41
2023-09-17T01:07:37.165Z,99510.22
2023-09-17T01:10:04.502Z,99509.31
2023-09-17T01:12:31.783Z,99499.69
2023-09-17T01:14:58.315Z,99503.88
2023-09-17T01:17:24.949Z,99499.69
2023-09-17T01:19:51.430Z,99502.44
2023-09-17T01:22:26.160Z,99493.13
2023-09-17T01:25:02.844Z,99498.03
2023-09-17T01:27:31.856Z,99505.69
2023-09-17T01:29:58.265Z,99493.88
2023-09-17T01:32:24.785Z,99490.53
2023-09-17T01:34:51.342Z,99489.53
2023-09-17T01:37:21.696Z,99488.31
2023-09-17T01:39:53.732Z,99474.13
2023-09-17T01:42:22.184Z,99471.56
2023-09-17T01:44:50.978Z,99472.59
2023-09-17T01:47:18.279Z,99473.44
2023-09-17T01:49:45.914Z,99476.53
2023-09-17T01:52:13.073Z,99464.97
2023-09-17T01:54:39.581Z,99470.66
2023-09-17T01:57:06.148Z,99468.25
2023-09-17T01:59:32.682Z,99462.22
2023-09-17T02:02:00.544Z,99467.91
2023-09-17T02:04:27.049Z,99462.03
2023-09-17T02:06:53.479Z,99466.03
2023-09-17T02:09:19.995Z,99457.38
2023-09-17T02:11:46.410Z,99455.50
2023-09-17T02:14:12.851Z,99456.00
2023-09-17T02:16:41.466Z,99447.53
2023-09-17T02:19:09.291Z,99462.38
2023-09-17T02:21:35.687Z,99452.03
2023-09-17T02:24:02.151Z,99452.03
2023-09-17T02:26:28.572Z,99444.59
2023-09-17T02:28:54.999Z,99455.84
2023-09-17T02:31:21.665Z,99461.03
2023-09-17T02:33:48.552Z,99462.91
2023-09-17T02:36:16.446Z,99457.72
2023-09-17T02:38:42.873Z,99460.25
2023-09-17T02:41:09.295Z,99454.31
2023-09-17T02:43:35.944Z,99452.22
2023-09-17T02:46:02.466Z,99457.53
2023-09-17T02:48:28.862Z,99451.66
2023-09-17T02:50:55.357Z,99439.28
2023-09-17T02:53:23.172Z,99443.81
2023-09-17T02:55:49.743Z,99438.13
2023-09-17T02:58:16.501Z,99441.50
2023-09-17T03:00:42.972Z,99437.28
2023-09-17T03:03:09.593Z,99436.06
2023-09-17T03:05:36.158Z,99433.94
2023-09-17T03:08:03.055Z,99427.41
2023-09-17T03:10:30.929Z,99431.63
2023-09-17T03:12:57.402Z,99419.72
2023-09-17T03:15:23.898Z,99421.25
2023-09-17T03:17:50.416Z,99423.53
2023-09-17T03:20:16.898Z,99415.72
2023-09-17T03:22:43.841Z,99421.25
2023-09-17T03:25:11.461Z,99418.69
2023-09-17T03:27:39.434Z,99434.41
2023-09-17T03:30:07.344Z,99429.91
2023-09-17T03:32:34.022Z,99429.56
2023-09-17T03:35:01.207Z,99431.47
2023-09-17T03:37:27.678Z,99422.13
2023-09-17T03:40:05.615Z,99424.56
2023-09-17T03:42:32.041Z,99429.00
2023-09-17T03:44:59.900Z,99427.50
2023-09-17T03:47:26.348Z,99424.22
2023-09-17T03:49:52.852Z,99439.22
2023-09-17T03:52:19.440Z,99428.97
2023-09-17T03:54:46.003Z,99428.91
2023-09-17T03:57:12.526Z,99427.06
2023-09-17T03:59:39.012Z,99427.38
2023-09-17T04:02:06.814Z,99429.84
2023-09-17T04:04:33.406Z,99426.88
2023-09-17T04:06:59.863Z,99417.72
2023-09-17T04:09:26.343Z,99415.47
2023-09-17T04:11:52.769Z,99409.13
2023-09-17T04:14:19.269Z,99402.41
2023-09-17T04:16:45.694Z,99409.31
2023-09-17T04:19:13.622Z,99406.03
2023-09-17T04:21:40.021Z,99395.47
2023-09-17T04:24:07.196Z,99389.03
2023-09-17T04:26:33.682Z,99393.72
2023-09-17T04:29:00.103Z,99398.91
2023-09-17T04:31:26.837Z,99393.75
2023-09-17T04:33:53.524Z,99395.59
2023-09-17T04:36:21.326Z,99396.78
2023-09-17T04:38:47.823Z,99392.81
2023-09-17T04:41:15.115Z,99392.91
2023-09-17T04:43:41.584Z,99399.50
2023-09-17T04:46:08.067Z,99399.53
2023-09-17T04:48:34.467Z,99400.03
2023-09-17T04:51:00.962Z,99401.53
2023-09-17T04:53:28.771Z,99401.03
2023-09-17T04:55:55.267Z,99405.50
2023-09-17T04:58:21.750Z,99412.94
2023-09-17T05:00:48.287Z,99413.78
2023-09-17T05:03:14.801Z,99406.66
2023-09-17T05:05:41.754Z,99408.78
2023-09-17T05:08:08.242Z,99406.59
2023-09-17T05:10:36.074Z,99406.38
2023-09-17T05:13:02.712Z,99407.47
2023-09-17T05:15:29.144Z,99414.81
2023-09-17T05:17:55.624Z,99419.34
2023-09-17T05:20:22.148Z,99420.44
2023-09-17T05:22:48.572Z,99408.78
2023-09-17T05:25:15.087Z,99411.41
2023-09-17T05:27:43.014Z,99407.34
2023-09-17T05:30:10.013Z,99405.66
2023-09-17T05:32:36.749Z,99415.81
2023-09-17T05:35:03.680Z,99418.75
2023-09-17T05:37:30.149Z,99411.63
2023-09-17T05:39:56.656Z,99413.38
2023-09-17T05:42:23.223Z,99420.78
2023-09-17T05:44:50.985Z,99419.69
2023-09-17T05:47:17.433Z,99420.28
2023-09-17T05:49:44.005Z,99421.59
2023-09-17T05:52:10.531Z,99418.25
2023-09-17T05:54:37.026Z,99413.19
2023-09-17T05:57:04.692Z,99418.31
2023-09-17T05:59:32.717Z,99416.94
2023-09-17T06:02:00.771Z,99418.97
2023-09-17T06:04:27.338Z,99424.16
2023-09-17T06:06:53.752Z,99426.19
2023-09-17T06:09:20.160Z,99416.84
2023-09-17T06:11:47.546Z,99420.72
2023-09-17T06:14:15.238Z,99426.94
2023-09-17T06:16:55.972Z,99417.38
2023-09-17T06:19:25.477Z,99419.38
2023-09-17T06:21:53.331Z,99416.00
2023-09-17T06:24:19.861Z,99422.22
2023-09-17T06:26:46.311Z,99426.94
2023-09-17T06:29:12.813Z,99423.00
2023-09-17T06:31:40.148Z,99430.81
2023-09-17T06:34:07.763Z,99426.13
2023-09-17T06:36:35.596Z,99425.13
2023-09-17T06:39:02.048Z,99429.69
2023-09-17T06:41:28.524Z,99430.47
2023-09-17T06:43:55.187Z,99427.44
2023-09-17T06:46:21.922Z,99420.75
2023-09-17T06:48:49.600Z,99406.88
2023-09-17T06:51:21.379Z,99425.19
2023-09-17T06:53:49.722Z,99419.81
2023-09-17T06:56:16.730Z,99423.00
2023-09-17T06:58:45.051Z,99419.69
2023-09-17T07:01:11.554Z,99414.03
2023-09-17T07:03:38.153Z,99416.91
2023-09-17T07:06:04.700Z,99410.56
2023-09-17T07:08:31.279Z,99408.38
2023-09-17T07:10:59.031Z,99429.34
2023-09-17T07:13:25.582Z,99422.72
2023-09-17T07:15:52.108Z,99418.50
2023-09-17T07:18:18.522Z,99413.63
2023-09-17T07:20:44.979Z,99419.88
2023-09-17T07:23:11.420Z,99421.00
2023-09-17T07:25:37.856Z,99420.03
2023-09-17T07:28:06.648Z,99419.19
2023-09-17T07:30:33.212Z,99413.84
2023-09-17T07:32:59.664Z,99416.44
2023-09-17T07:35:26.408Z,99415.44
2023-09-17T07:37:52.857Z,99425.78
2023-09-17T07:40:19.336Z,99421.00
2023-09-17T07:42:45.825Z,99418.41
2023-09-17T07:45:13.630Z,99422.91
2023-09-17T07:47:40.213Z,99425.28
2023-09-17T07:50:07.813Z,99419.66
2023-09-17T07:52:34.321Z,99428.97
2023-09-17T07:55:00.977Z,99417.38
2023-09-17T07:57:28.118Z,99425.56
2023-09-17T07:59:54.538Z,99422.88
2023-09-17T08:02:22.409Z,99425.66
2023-09-17T08:04:48.911Z,99428.84
2023-09-17T08:07:15.636Z,99420.72
2023-09-17T08:09:42.048Z,99416.13
2023-09-17T08:12:08.935Z,99431.28
2023-09-17T08:14:35.778Z,99429.44
2023-09-17T08:17:02.365Z,99430.31
2023-09-17T08:19:30.197Z,99430.31
2023-09-17T08:21:56.603Z,99432.13
2023-09-17T08:24:23.251Z,99432.78
2023-09-17T08:26:49.799Z,99438.84
2023-09-17T08:29:16.266Z,99429.72
2023-09-17T08:31:42.830Z,99432.31
2023-09-17T08:34:09.331Z,99428.88
2023-09-17T08:36:37.863Z,99427.53
2023-09-17T08:39:04.296Z,99431.91
2023-09-17T08:41:30.844Z,99440.19
2023-09-17T08:43:58.407Z,99431.94
2023-09-17T08:46:27.876Z,99432.28
2023-09-17T08:48:54.642Z,99431.72
2023-09-17T08:51:24.391Z,99443.16
2023-09-17T08:54:02.038Z,99447.34
2023-09-17T08:56:31.638Z,99437.19
2023-09-17T08:59:04.638Z,99443.38
2023-09-17T09:01:33.022Z,99446.13
2023-09-17T09:04:01.156Z,99447.31
2023-09-17T09:06:29.850Z,99441.63
2023-09-17T09:08:58.624Z,99440.38
2023-09-17T09:11:25.644Z,99436.91
2023-09-17T09:13:52.458Z,99444.88
2023-09-17T09:16:19.677Z,99440.69
2023-09-17T09:18:46.219Z,99444.00
2023-09-17T09:21:12.690Z,99446.63
2023-09-17T09:23:39.168Z,99446.69
2023-09-17T09:26:07.171Z,99447.97
2023-09-17T09:28:34.638Z,99456.88
2023-09-17T09:31:01.132Z,99449.59
2023-09-17T09:33:27.754Z,99456.06
2023-09-17T09:35:54.750Z,99444.50
2023-09-17T09:38:21.315Z,99444.91
2023-09-17T09:40:48.836Z,99452.06
2023-09-17T09:43:30.260Z,99454.22
2023-09-17T09:46:01.608Z,99441.34
2023-09-17T09:48:28.165Z,99450.66
2023-09-17T09:50:55.026Z,99440.50
2023-09-17T09:53:21.415Z,99433.41
2023-09-17T09:55:49.118Z,99443.44
2023-09-17T09:58:16.035Z,99451.31
2023-09-17T10:00:44.110Z,99453.47
2023-09-17T10:03:10.619Z,99451.69
2023-09-17T10:05:38.028Z,99455.41
2023-09-17T10:08:05.295Z,99445.41
2023-09-17T10:10:32.610Z,99449.63
2023-09-17T10:13:00.543Z,99451.78
2023-09-17T10:15:27.728Z,99449.16
2023-09-17T10:17:57.147Z,99447.59
2023-09-17T10:20:27.177Z,99442.75
2023-09-17T10:22:55.337Z,99445.94
2023-09-17T10:25:24.276Z,99438.88
2023-09-17T10:27:54.937Z,99435.00
2023-09-17T10:30:22.812Z,99427.69
2023-09-17T10:32:51.357Z,99427.53
2023-09-17T10:35:19.381Z,99430.56
2023-09-17T10:37:46.957Z,99428.78
2023-09-17T10:40:14.155Z,99429.91
2023-09-17T10:42:40.902Z,99429.72
2023-09-17T10:45:09.452Z,99424.53
2023-09-17T10:47:36.280Z,99433.38
2023-09-17T10:50:03.406Z,99431.63
2023-09-17T10:52:31.392Z,99423.97
2023-09-17T10:54:58.184Z,99431.81
2023-09-17T10:57:32.951Z,99431.63
2023-09-17T11:00:01.440Z,99416.25
2023-09-17T11:02:31.880Z,99415.75
2023-09-17T11:05:00.268Z,99407.09
2023-09-17T11:07:27.592Z,99420.84
2023-09-17T11:09:55.440Z,99418.53
2023-09-17T11:12:22.581Z,99412.19
2023-09-17T11:14:49.128Z,99423.44
2023-09-17T11:17:17.546Z,99426.94
2023-09-17T11:19:43.996Z,99426.56
2023-09-17T11:22:13.221Z,99428.44
2023-09-17T11:24:39.788Z,99425.06
2023-09-17T11:27:07.536Z,99423.06
2023-09-17T11:29:38.436Z,99430.13
2023-09-17T11:32:05.176Z,99430.59
2023-09-17T11:34:33.350Z,99435.22
2023-09-17T11:36:59.935Z,99431.81
2023-09-17T11:39:26.486Z,99439.53
2023-09-17T11:41:55.392Z,99435.91
2023-09-17T11:44:23.744Z,99434.25
2023-09-17T11:46:50.749Z,99433.59
2023-09-17T11:49:17.677Z,99431.41
2023-09-17T11:51:45.498Z,99427.94
2023-09-17T11:54:12.640Z,99422.47
2023-09-17T11:56:46.236Z,99432.53
2023-09-17T11:59:12.754Z,99418.91
2023-09-17T12:01:43.243Z,99421.88
2023-09-17T12:04:11.335Z,99420.09
2023-09-17T12:06:39.768Z,99429.63
2023-09-17T12:09:29.777Z,99421.59
2023-09-17T12:11:56.732Z,99431.31
2023-09-17T12:14:24.063Z,99430.53
2023-09-17T12:16:54.744Z,99420.34
2023-09-17T12:19:21.745Z,99430.41
2023-09-17T12:21:49.837Z,99426.03
2023-09-17T12:24:20.533Z,99420.72
2023-09-17T12:27:06.990Z,99411.22
2023-09-17T12:29:33.890Z,99418.44
2023-09-17T12:32:02.186Z,99412.50
2023-09-17T12:34:28.741Z,99413.97
2023-09-17T12:36:55.152Z,99408.91
2023-09-17T12:39:21.752Z,99413.25
2023-09-17T12:41:48.270Z,99420.38
2023-09-17T12:44:14.846Z,99413.63
2023-09-17T12:46:41.929Z,99408.88
2023-09-17T12:49:10.096Z,99404.78
2023-09-17T12:51:37.891Z,99411.09
2023-09-17T12:54:04.909Z,99408.06
2023-09-17T12:56:33.254Z,99407.69
2023-09-17T12:58:59.984Z,99406.47
2023-09-17T13:01:26.454Z,99414.78
2023-09-17T13:03:54.583Z,99413.13
2023-09-17T13:06:24.464Z,99404.91
2023-09-17T13:08:51.585Z,99408.81
2023-09-17T13:11:18.905Z,99399.22
2023-09-17T13:13:45.927Z,99403.97
2023-09-17T13:16:13.023Z,99400.91
2023-09-17T13:18:40.067Z,99393.38
2023-09-17T13:21:09.868Z,99385.25
2023-09-17T13:23:39.463Z,99384.13
2023-09-17T13:26:07.309Z,99384.66
2023-09-17T13:28:34.179Z,99383.22
2023-09-17T13:31:01.593Z,99381.81
2023-09-17T13:33:28.299Z,99376.16
2023-09-17T13:35:55.093Z,99387.38
2023-09-17T13:38:21.895Z,99380.22
2023-09-17T13:40:51.299Z,99373.84
2023-09-17T13:43:18.460Z,99376.47
2023-09-17T13:45:55.637Z,99371.16
2023-09-17T13:48:22.744Z,99368.50
2023-09-17T13:50:49.568Z,99374.53
2023-09-17T13:53:16.646Z,99367.16
2023-09-17T13:55:43.367Z,99356.09
2023-09-17T13:58:12.408Z,99352.44
2023-09-17T14:00:38.917Z,99354.16
2023-09-17T14:03:10.250Z,99355.38
2023-09-17T14:05:36.710Z,99356.38
2023-09-17T14:08:03.316Z,99352.38
2023-09-17T14:10:30.046Z,99356.31
2023-09-17T14:12:56.773Z,99354.47
2023-09-17T14:15:24.623Z,99350.66
2023-09-17T14:17:51.102Z,99355.53
2023-09-17T14:20:17.627Z,99350.34
2023-09-17T14:22:44.116Z,99355.19
2023-09-17T14:25:10.568Z,99351.53
2023-09-17T14:27:37.093Z,99343.88
2023-09-17T14:30:04.202Z,99352.88
2023-09-17T14:32:32.292Z,99341.06
2023-09-17T14:34:58.952Z,99338.63
2023-09-17T14:37:27.056Z,99341.31
2023-09-17T14:39:53.449Z,99343.34
2023-09-17T14:42:20.565Z,99336.56
2023-09-17T14:44:46.976Z,99333.81
2023-09-17T14:47:13.530Z,99330.50
2023-09-17T14:49:41.340Z,99331.53
2023-09-17T14:52:07.804Z,99328.63
2023-09-17T14:54:34.597Z,99330.03
2023-09-17T14:57:01.019Z,99336.78
2023-09-17T14:59:27.512Z,99332.38
2023-09-17T15:02:00.411Z,99326.78
2023-09-17T15:04:27.612Z,99326.91
2023-09-17T15:06:55.562Z,99326.06
2023-09-17T15:09:26.964Z,99319.47
2023-09-17T15:11:53.837Z,99318.13
2023-09-17T15:14:20.313Z,99314.63
2023-09-17T15:16:46.812Z,99316.81
2023-09-17T15:19:13.280Z,99322.44
2023-09-17T15:21:39.697Z,99333.06
2023-09-17T15:24:08.008Z,99322.06
2023-09-17T15:26:34.410Z,99332.47
2023-09-17T15:29:00.853Z,99331.09
2023-09-17T15:31:27.357Z,99329.41
2023-09-17T15:33:53.897Z,99332.22
2023-09-17T15:36:20.724Z,99338.59
2023-09-17T15:38:47.230Z,99332.34
2023-09-17T15:41:15.178Z,99326.44
2023-09-17T15:43:42.284Z,99335.22
2023-09-17T15:46:09.077Z,99330.22
2023-09-17T15:48:35.598Z,99340.25
2023-09-17T15:51:02.724Z,99338.41
2023-09-17T15:53:29.172Z,99330.97
2023-09-17T15:55:56.299Z,99326.75
2023-09-17T15:58:24.120Z,99322.81
2023-09-17T16:00:50.627Z,99322.81
2023-09-17T16:03:17.221Z,99322.41
2023-09-17T16:05:44.054Z,99313.25
2023-09-17T16:08:11.196Z,99307.63
2023-09-17T16:10:39.539Z,99309.88
2023-09-17T16:13:06.799Z,99315.25
2023-09-17T16:15:34.649Z,99318.28
2023-09-17T16:18:01.109Z,99307.41
2023-09-17T16:20:27.648Z,99308.47
2023-09-17T16:22:54.106Z,99311.00
2023-09-17T16:25:20.711Z,99313.41
2023-09-17T16:27:47.188Z,99313.88
2023-09-17T16:30:14.354Z,99306.25
2023-09-17T16:32:42.491Z,99303.28
2023-09-17T16:35:10.038Z,99313.28
2023-09-17T16:37:36.681Z,99318.97
2023-09-17T16:40:03.517Z,99312.44
2023-09-17T16:42:30.480Z,99321.78
2023-09-17T16:45:01.775Z,99317.09
2023-09-17T16:47:29.712Z,99307.13
2023-09-17T16:49:57.665Z,99295.34
2023-09-17T16:52:25.622Z,99313.03
2023-09-17T16:54:52.063Z,99317.69
2023-09-17T16:57:18.895Z,99313.75
2023-09-17T16:59:45.909Z,99310.09
2023-09-17T17:02:14.258Z,99310.81
2023-09-17T17:04:40.877Z,99304.41
2023-09-17T17:07:08.768Z,99300.88
2023-09-17T17:09:37.756Z,99303.09
2023-09-17T17:12:09.040Z,99307.19
2023-09-17T17:14:35.653Z,99301.88
2023-09-17T17:17:02.245Z,99305.16
2023-09-17T17:19:28.824Z,99310.34
2023-09-17T17:21:55.420Z,99296.19
2023-09-17T17:24:23.194Z,99294.06
2023-09-17T17:26:49.768Z,99291.75
2023-09-17T17:29:19.053Z,99281.44
2023-09-17T17:31:45.696Z,99287.22
2023-09-17T17:34:12.339Z,99286.59
2023-09-17T17:36:38.866Z,99291.53
2023-09-17T17:39:05.366Z,99295.84
2023-09-17T17:41:33.258Z,99293.94
2023-09-17T17:44:00.082Z,99295.19
2023-09-17T17:46:26.901Z,99295.63
2023-09-17T17:48:53.382Z,99278.84
2023-09-17T17:51:19.891Z,99284.44
2023-09-17T17:53:46.555Z,99292.13
2023-09-17T17:56:14.174Z,99282.47
2023-09-17T17:58:42.072Z,99278.41
2023-09-17T18:01:08.718Z,99281.13
2023-09-17T18:03:35.322Z,99274.06
2023-09-17T18:06:01.862Z,99270.81
2023-09-17T18:08:28.594Z,99266.28
2023-09-17T18:10:55.165Z,99279.25
2023-09-17T18:13:21.792Z,99278.97
2023-09-17T18:15:49.977Z,99273.44
2023-09-17T18:18:16.628Z,99266.41
2023-09-17T18:20:44.566Z,99266.41
2023-09-17T18:23:11.120Z,99261.44
2023-09-17T18:25:37.587Z,99264.91
2023-09-17T18:28:04.492Z,99263.56
2023-09-17T18:30:30.911Z,99268.75
2023-09-17T18:32:58.743Z,99271.72
2023-09-17T18:35:25.350Z,99273.44
2023-09-17T18:37:51.926Z,99264.88
2023-09-17T18:40:18.476Z,99261.34
2023-09-17T18:42:44.922Z,99257.38
2023-09-17T18:45:13.171Z,99253.69
2023-09-17T18:47:40.151Z,99251.13
2023-09-17T18:50:08.882Z,99248.09
2023-09-17T18:52:35.375Z,99242.94
2023-09-17T18:55:01.999Z,99253.25
2023-09-17T18:57:33.743Z,99247.22
2023-09-17T19:00:00.197Z,99247.41
2023-09-17T19:02:26.944Z,99241.38
2023-09-17T19:04:53.579Z,99240.53
2023-09-17T19:07:21.509Z,99229.56
2023-09-17T19:09:48.187Z,99237.59
2023-09-17T19:12:14.693Z,99236.38
2023-09-17T19:14:41.190Z,99235.25
2023-09-17T19:17:07.782Z,99228.81
2023-09-17T19:19:34.634Z,99228.56
2023-09-17T19:22:02.587Z,99218.44
2023-09-17T19:24:30.449Z,99222.91
2023-09-17T19:26:57.047Z,99217.75
2023-09-17T19:29:23.536Z,99227.88
2023-09-17T19:31:50.111Z,99223.16
2023-09-17T19:34:16.763Z,99217.75
2023-09-17T19:36:43.416Z,99211.47
2023-09-17T19:39:09.923Z,99195.84
2023-09-17T19:41:37.724Z,99181.88
2023-09-17T19:44:04.273Z,99178.03
2023-09-17T19:46:30.762Z,99171.41
2023-09-17T19:48:57.411Z,99179.63
2023-09-17T19:51:24.037Z,99177.66
2023-09-17T19:53:50.845Z,99172.63
2023-09-17T19:56:19.335Z,99170.97
2023-09-17T19:58:47.760Z,99166.28
2023-09-17T20:01:14.254Z,99147.16
2023-09-17T20:03:41.114Z,99150.41
2023-09-17T20:06:07.701Z,99150.22
2023-09-17T20:08:34.246Z,99146.56
2023-09-17T20:11:00.776Z,99150.94
2023-09-17T20:13:27.474Z,99147.75
2023-09-17T20:15:55.311Z,99151.00
2023-09-17T20:18:21.780Z,99150.09
2023-09-17T20:20:48.280Z,99151.13
2023-09-17T20:23:14.888Z,99154.97
2023-09-17T20:25:41.674Z,99157.41
2023-09-17T20:28:08.125Z,99153.31
2023-09-17T20:30:34.597Z,99139.88
2023-09-17T20:33:02.430Z,99137.09
2023-09-17T20:35:29.027Z,99146.09
2023-09-17T20:37:55.535Z,99135.81
2023-09-17T20:40:22.004Z,99140.97
2023-09-17T20:42:48.741Z,99135.00
2023-09-17T20:45:15.158Z,99137.31
2023-09-17T20:47:41.857Z,99135.00
2023-09-17T20:50:10.349Z,99137.34
2023-09-17T20:52:37.951Z,99140.38
2023-09-17T20:55:05.484Z,99147.50
2023-09-17T20:57:32.249Z,99145.13
2023-09-17T20:59:58.934Z,99142.31
2023-09-17T21:02:25.733Z,99139.69
2023-09-17T21:04:52.455Z,99144.72
2023-09-17T21:07:20.271Z,99130.78
2023-09-17T21:09:46.723Z,99145.97
2023-09-17T21:12:13.157Z,99138.28
2023-09-17T21:14:39.874Z,99133.59
2023-09-17T21:17:06.462Z,99133.06
2023-09-17T21:19:33.239Z,99136.53
2023-09-17T21:21:59.719Z,99133.59
2023-09-17T21:24:27.501Z,99127.09
2023-09-17T21:26:54.032Z,99129.66
2023-09-17T21:29:20.630Z,99127.75
2023-09-17T21:31:47.358Z,99128.59
2023-09-17T21:34:13.822Z,99123.69
2023-09-17T21:36:40.334Z,99129.59
2023-09-17T21:39:06.895Z,99123.69
2023-09-17T21:41:35.122Z,99115.66
2023-09-17T21:44:01.976Z,99120.22
2023-09-17T21:46:28.490Z,99114.81
2023-09-17T21:48:59.407Z,99119.03
2023-09-17T21:51:25.849Z,99124.44
2023-09-17T21:53:52.636Z,99119.38
2023-09-17T21:56:19.270Z,99123.00
2023-09-17T21:58:47.131Z,99109.50
2023-09-17T22:01:13.631Z,99111.88
2023-09-17T22:03:40.252Z,99110.81
2023-09-17T22:06:06.772Z,99098.84
2023-09-17T22:08:33.317Z,99095.84
2023-09-17T22:11:04.730Z,99093.06
2023-09-17T22:13:31.371Z,99095.59
2023-09-17T22:15:59.108Z,99087.47
2023-09-17T22:18:25.632Z,99093.03
2023-09-17T22:21:04.920Z,99081.03
2023-09-17T22:23:31.444Z,99074.34
2023-09-17T22:25:57.903Z,99067.56
2023-09-17T22:28:24.544Z,99064.97
2023-09-17T22:30:51.269Z,99061.78
2023-09-17T22:33:19.183Z,99046.41
2023-09-17T22:35:45.656Z,99034.34
2023-09-17T22:38:12.149Z,99037.56
2023-09-17T22:40:39.402Z,99036.56
2023-09-17T22:43:08.617Z,99032.66
2023-09-17T22:45:37.619Z,99029.50
2023-09-17T22:48:04.989Z,99032.31
2023-09-17T22:50:32.929Z,99032.78
2023-09-17T22:52:59.428Z,99020.34
2023-09-17T22:55:25.942Z,99005.84
2023-09-17T22:57:52.381Z,99001.97
2023-09-17T23:00:18.939Z,99005.84
2023-09-17T23:02:45.512Z,98999.84
2023-09-17T23:05:12.065Z,98989.16
2023-09-17T23:07:39.846Z,98984.88
2023-09-17T23:10:07.182Z,98981.84
2023-09-17T23:12:33.612Z,98985.31
2023-09-17T23:15:00.163Z,98981.44
2023-09-17T23:17:26.663Z,98976.34
2023-09-17T23:19:53.176Z,98972.22
2023-09-17T23:22:19.731Z,98967.34
2023-09-17T23:24:47.561Z,98959.88
2023-09-17T23:27:14.048Z,98959.00
2023-09-17T23:29:40.443Z,98951.13
2023-09-17T23:32:07.037Z,98952.41
2023-09-17T23:34:33.509Z,98947.28
2023-09-17T23:37:00.004Z,98937.88
2023-09-17T23:39:26.437Z,98931.88
2023-09-17T23:41:54.276Z,98926.28
2023-09-17T23:44:20.820Z,98911.97
2023-09-17T23:46:47.292Z,98913.03
2023-09-17T23:49:13.822Z,98904.47
2023-09-17T23:51:40.223Z,98901.28
2023-09-17T23:54:06.927Z,98906.78
2023-09-17T23:56:33.413Z,98889.94
2023-09-17T23:59:01.288Z,98896.13
